Craigville, Indiana
Current Conditions -  °F | °C
As of 8:54 AM on Wednesday 26 Nov 2014 (Local Time) from KFWA Reporting Station
Light Snow Light Snow  
Wind Chill: 19°   Ceiling: 1400
Heat Index: 26°   Visibility: 6mi
Dew Point: 20°   Wind: 6mph
Humidity: 78%   Direction: 110°ESE
Pressure: 30.16"   Gusts: NA
Location:  40.78°N, 85.09°W
Report Text: KFWA 261354Z 11005KT 6SM -SN OVC014 M03/M07 A3016 RMK AO2 SNB21 SLP224 P0000 T10331067
Loading
Personal Weather Stations






























Interactive Weather Map New forecast layout! Learn more

10-Day Weather Forecast

Advertisements
Track Severe Weather on mobile